Terminal Aerodrome Forecast
Issued by NWS

Home | Current Version | Previous Version | Text Only | Print | Product List | Glossary On
Versions: 1 2 3 4 5 6 7 8 9 10 11 12 13 14 15 16 17 18 19 20 21
000
FTUS45 KTFX 172300
TAFLWT
TAF
KLWT 172320Z 1800/1824 VRB04KT P6SM SCT060 BKN090
     FM180200 22006KT P6SM SCT090 BKN250
     FM181500 22006KT P6SM BKN090=

USA.gov is the U.S. government's official web portal to all federal, state and local government web resources and services.